Time;durP1;ratioP1;P1;durP2;ratioP2;P2;SDS_P1;SDS_P2;PMS_P1;PMS_P2;Temp;Humidity;BMP_temperature;BMP_pressure;BME280_temperature;BME280_humidity;BME280_pressure;Samples;Min_cycle;Max_cycle;Signal;HPM_P1;HPM_P2
2021/01/22 00:01:45;;;;;;;1.83;0.43;;;4.60;99.90;;;;;;10362441;28;20503;-56
2021/01/22 00:07:06;;;;;;;2.53;0.70;;;4.60;99.90;;;;;;10365970;28;20046;-56
2021/01/22 00:12:27;;;;;;;3.20;1.10;;;4.60;99.90;;;;;;10373894;28;20034;-56
2021/01/22 00:17:48;;;;;;;1.10;0.40;;;4.60;99.90;;;;;;10364433;28;20387;-56
2021/01/22 00:23:09;;;;;;;2.20;0.80;;;4.60;99.90;;;;;;10366094;28;20619;-56
2021/01/22 00:28:30;;;;;;;1.42;0.63;;;4.60;99.90;;;;;;10368143;28;20041;-56
2021/01/22 00:33:50;;;;;;;0.45;0.20;;;4.50;99.90;;;;;;10367431;28;20088;-55
2021/01/22 00:39:11;;;;;;;1.40;0.43;;;4.60;99.90;;;;;;10361329;28;20079;-56
2021/01/22 00:44:32;;;;;;;1.05;0.28;;;4.50;99.90;;;;;;10361988;28;20041;-55
2021/01/22 00:49:53;;;;;;;1.58;0.70;;;4.50;99.90;;;;;;10364265;28;20073;-56
2021/01/22 00:55:14;;;;;;;1.55;0.20;;;4.50;99.90;;;;;;10373701;28;20052;-56
2021/01/22 01:00:35;;;;;;;0.73;0.38;;;4.50;99.90;;;;;;10363360;28;20128;-56
2021/01/22 01:05:56;;;;;;;0.70;0.20;;;4.50;99.90;;;;;;10362062;28;20042;-56
2021/01/22 01:11:17;;;;;;;2.60;0.55;;;4.50;99.90;;;;;;10363036;28;20038;-56
2021/01/22 01:16:39;;;;;;;0.93;0.25;;;4.50;99.90;;;;;;10365065;28;20109;-56
2021/01/22 01:22:00;;;;;;;0.63;0.40;;;4.50;99.90;;;;;;10363672;28;20637;-56
2021/01/22 01:27:21;;;;;;;0.95;0.38;;;4.50;99.90;;;;;;10374589;28;20429;-56
2021/01/22 01:32:42;;;;;;;1.67;0.50;;;4.60;99.90;;;;;;10362866;28;20401;-56
2021/01/22 01:38:03;;;;;;;0.65;0.40;;;4.50;99.90;;;;;;10362320;28;20050;-55
2021/01/22 01:43:23;;;;;;;1.20;0.77;;;4.60;99.90;;;;;;10363579;28;20106;-55
2021/01/22 01:48:45;;;;;;;3.95;1.50;;;4.60;99.90;;;;;;10363087;28;20069;-56
2021/01/22 01:54:06;;;;;;;4.13;0.77;;;4.50;99.90;;;;;;10364725;28;20039;-56
2021/01/22 01:59:28;;;;;;;1.25;0.52;;;4.50;99.90;;;;;;10364575;28;20478;-56
2021/01/22 02:04:49;;;;;;;6.43;0.95;;;4.50;99.90;;;;;;10373286;28;20076;-55
2021/01/22 02:10:10;;;;;;;3.78;1.48;;;4.60;99.90;;;;;;10364433;28;20529;-55
2021/01/22 02:15:33;;;;;;;1.67;1.00;;;4.60;99.90;;;;;;10362931;28;20057;-55
2021/01/22 02:21:18;;;;;;;4.28;1.52;;;4.60;99.90;;;;;;10368588;28;22857;-55
2021/01/22 02:27:04;;;;;;;1.10;0.55;;;4.50;99.90;;;;;;10367428;28;20041;-55
2021/01/22 02:32:27;;;;;;;0.70;0.38;;;4.60;99.90;;;;;;10367675;28;20030;-55
2021/01/22 02:37:49;;;;;;;3.67;0.60;;;4.60;99.90;;;;;;10386105;28;20091;-56
2021/01/22 02:43:11;;;;;;;0.40;0.10;;;4.60;99.90;;;;;;10371436;28;20069;-55
2021/01/22 02:48:33;;;;;;;0.52;0.30;;;4.70;99.90;;;;;;10368089;28;20057;-56
2021/01/22 02:53:54;;;;;;;1.98;0.60;;;4.70;99.90;;;;;;10368112;28;20037;-56
2021/01/22 02:59:22;;;;;;;2.28;0.50;;;4.60;99.90;;;;;;10369597;28;20026;-55
2021/01/22 03:04:43;;;;;;;0.82;0.38;;;4.60;99.90;;;;;;10368107;28;20406;-55
2021/01/22 03:10:05;;;;;;;3.97;1.60;;;4.60;99.90;;;;;;10368404;28;20037;-55
2021/01/22 03:15:27;;;;;;;0.65;0.25;;;4.50;99.90;;;;;;10371256;28;20520;-55
2021/01/22 03:20:49;;;;;;;0.00;0.00;;;4.40;99.90;;;;;;10363953;28;20042;-56
2021/01/22 03:26:09;;;;;;;0.05;0.00;;;4.40;99.90;;;;;;10363625;28;20046;-55
2021/01/22 03:31:30;;;;;;;0.22;0.08;;;4.20;99.90;;;;;;10366520;28;20041;-56
2021/01/22 03:36:53;;;;;;;0.00;0.00;;;4.10;99.90;;;;;;10379234;28;20037;-55
2021/01/22 03:42:14;;;;;;;0.35;0.03;;;4.00;99.90;;;;;;10365520;28;20034;-56
2021/01/22 03:47:35;;;;;;;0.00;0.00;;;4.00;99.90;;;;;;10365911;28;20053;-56
2021/01/22 03:52:56;;;;;;;0.00;0.00;;;4.00;99.90;;;;;;10369827;28;20049;-55
2021/01/22 03:58:17;;;;;;;0.05;0.03;;;3.90;99.90;;;;;;10365018;28;20069;-55
2021/01/22 04:03:38;;;;;;;0.00;0.00;;;4.00;99.90;;;;;;10368720;28;20052;-55
2021/01/22 04:08:59;;;;;;;0.10;0.08;;;4.00;99.90;;;;;;10367684;28;20044;-55
2021/01/22 04:14:20;;;;;;;11.50;0.77;;;4.00;99.90;;;;;;10364624;28;20037;-55
2021/01/22 04:19:43;;;;;;;0.40;0.10;;;4.00;99.90;;;;;;10363157;28;20069;-55
2021/01/22 04:25:05;;;;;;;0.47;0.15;;;3.90;99.90;;;;;;10361446;28;20091;-55
2021/01/22 04:30:25;;;;;;;4.65;1.02;;;3.90;99.90;;;;;;10364448;28;20506;-55
2021/01/22 04:35:47;;;;;;;0.73;0.30;;;3.90;99.90;;;;;;10360949;28;20038;-55
2021/01/22 04:41:07;;;;;;;1.00;0.20;;;3.80;99.90;;;;;;10365793;28;20124;-55
2021/01/22 04:46:33;;;;;;;0.20;0.05;;;3.80;99.90;;;;;;10354268;28;20045;-55
2021/01/22 04:51:56;;;;;;;1.50;0.32;;;3.70;99.90;;;;;;10353357;28;20092;-55
2021/01/22 04:57:18;;;;;;;1.17;0.35;;;3.80;99.90;;;;;;10362666;28;20663;-55
2021/01/22 05:02:39;;;;;;;0.25;0.08;;;3.80;99.90;;;;;;10359075;28;20033;-55
2021/01/22 05:08:02;;;;;;;2.38;0.50;;;3.90;99.90;;;;;;10353732;28;20402;-55
2021/01/22 05:13:23;;;;;;;0.82;0.32;;;3.90;99.90;;;;;;10366797;28;20072;-55
2021/01/22 05:18:44;;;;;;;0.70;0.30;;;3.90;99.90;;;;;;10354301;28;20034;-55
2021/01/22 05:24:26;;;;;;;1.33;0.38;;;3.90;99.90;;;;;;10354831;28;20038;-55
2021/01/22 05:30:03;;;;;;;1.90;0.50;;;3.90;99.90;;;;;;10353533;28;20059;-55
2021/01/22 05:35:28;;;;;;;2.05;0.70;;;3.90;99.90;;;;;;10354956;28;20040;-55
2021/01/22 05:40:50;;;;;;;2.67;1.23;;;3.80;99.90;;;;;;10352462;28;20112;-55
2021/01/22 05:46:16;;;;;;;3.08;1.05;;;3.80;99.90;;;;;;10354008;28;20049;-55
2021/01/22 05:51:38;;;;;;;2.97;1.33;;;3.80;99.90;;;;;;10365081;28;20534;-55
2021/01/22 05:56:59;;;;;;;2.08;0.82;;;3.70;99.90;;;;;;10366742;28;20070;-55
2021/01/22 06:02:28;;;;;;;6.68;1.10;;;3.80;99.90;;;;;;10369131;28;20550;-55
2021/01/22 06:08:07;;;;;;;2.22;0.90;;;3.70;99.90;;;;;;10372100;28;20045;-55
2021/01/22 06:13:30;;;;;;;3.63;1.67;;;3.60;99.90;;;;;;10376345;28;20483;-55
2021/01/22 06:18:53;;;;;;;7.20;2.38;;;3.70;99.90;;;;;;10371672;28;20041;-55
2021/01/22 06:24:14;;;;;;;3.90;1.90;;;3.60;99.90;;;;;;10373456;28;20532;-55
2021/01/22 06:29:37;;;;;;;2.88;1.15;;;3.60;99.90;;;;;;10372623;28;20592;-55
2021/01/22 06:34:58;;;;;;;3.25;1.75;;;3.50;99.90;;;;;;10376573;28;20041;-55
2021/01/22 06:40:20;;;;;;;2.95;1.27;;;3.50;99.90;;;;;;10370698;28;20365;-55
2021/01/22 06:45:41;;;;;;;15.88;2.10;;;3.40;99.90;;;;;;10376482;28;20049;-55
2021/01/22 06:51:15;;;;;;;5.57;2.17;;;3.40;99.90;;;;;;10373871;28;20042;-55
2021/01/22 06:56:54;;;;;;;8.50;1.52;;;3.50;99.90;;;;;;10375553;28;20049;-55
2021/01/22 07:02:38;;;;;;;4.57;2.05;;;3.40;99.90;;;;;;10374626;28;20041;-54
2021/01/22 07:07:59;;;;;;;3.70;1.73;;;3.50;99.90;;;;;;10369064;28;20064;-55
2021/01/22 07:13:36;;;;;;;9.20;1.30;;;3.50;99.90;;;;;;10366665;28;22090;-55
2021/01/22 07:19:01;;;;;;;5.82;1.27;;;3.50;99.90;;;;;;10370167;28;20041;-54
2021/01/22 07:24:24;;;;;;;2.50;1.27;;;3.60;99.90;;;;;;10377539;28;20041;-55
2021/01/22 07:30:10;;;;;;;2.55;1.02;;;3.50;99.90;;;;;;10366693;28;20083;-56
2021/01/22 07:35:31;;;;;;;5.70;1.98;;;3.50;99.90;;;;;;10365259;28;20034;-54
2021/01/22 07:40:52;;;;;;;4.18;2.28;;;3.50;99.90;;;;;;10365412;28;20057;-54
2021/01/22 07:46:13;;;;;;;1.45;1.02;;;3.50;99.90;;;;;;10363860;28;20107;-54
2021/01/22 07:51:37;;;;;;;2.20;0.75;;;3.40;99.90;;;;;;10368635;28;20720;-55
2021/01/22 07:56:58;;;;;;;8.05;1.52;;;3.40;99.90;;;;;;10365445;28;20208;-55
2021/01/22 08:02:22;;;;;;;4.40;1.10;;;3.50;99.90;;;;;;10362861;28;20049;-55
2021/01/22 08:07:43;;;;;;;3.40;1.58;;;3.50;99.90;;;;;;10365011;28;20041;-54
2021/01/22 08:13:04;;;;;;;4.88;1.55;;;3.50;99.90;;;;;;10364852;28;20046;-54
2021/01/22 08:18:25;;;;;;;14.75;1.10;;;3.50;99.90;;;;;;10365033;28;20040;-55
2021/01/22 08:23:47;;;;;;;1.25;0.63;;;3.50;99.90;;;;;;10365284;28;20042;-57
2021/01/22 08:29:10;;;;;;;1.48;0.80;;;3.40;99.90;;;;;;10362392;28;20079;-57
2021/01/22 08:34:34;;;;;;;4.03;0.82;;;3.40;99.90;;;;;;10361223;28;20502;-57
2021/01/22 08:39:59;;;;;;;2.00;1.00;;;3.50;99.90;;;;;;10363037;28;20473;-56
2021/01/22 08:45:20;;;;;;;5.82;1.35;;;3.40;99.90;;;;;;10362283;28;20505;-57
2021/01/22 08:50:41;;;;;;;1.02;0.60;;;3.40;99.90;;;;;;10364624;28;20449;-56
2021/01/22 08:56:13;;;;;;;2.80;1.60;;;3.60;99.90;;;;;;10365289;28;20030;-57
2021/01/22 09:01:53;;;;;;;1.48;0.70;;;3.60;99.90;;;;;;10361674;28;20045;-56
2021/01/22 09:07:17;;;;;;;10.07;2.88;;;3.70;99.90;;;;;;10360932;28;20398;-56
2021/01/22 09:12:40;;;;;;;2.40;0.68;;;3.70;99.90;;;;;;10364311;28;20042;-56
2021/01/22 09:18:02;;;;;;;4.22;2.10;;;3.80;99.90;;;;;;10358490;28;20045;-56
2021/01/22 09:23:23;;;;;;;3.75;1.27;;;3.90;99.90;;;;;;10361638;28;20041;-56
2021/01/22 09:28:45;;;;;;;2.22;1.00;;;3.80;99.90;;;;;;10358856;28;20044;-54
2021/01/22 09:34:06;;;;;;;3.72;1.23;;;3.90;99.90;;;;;;10360864;28;20037;-56
2021/01/22 09:39:27;;;;;;;2.15;0.93;;;4.00;99.90;;;;;;10362638;28;20041;-56
2021/01/22 09:44:48;;;;;;;5.32;1.55;;;4.20;99.90;;;;;;10357580;28;20548;-54
2021/01/22 09:50:11;;;;;;;2.42;1.00;;;4.40;99.90;;;;;;10355797;28;20061;-54
2021/01/22 09:55:32;;;;;;;1.60;0.70;;;4.50;99.90;;;;;;10354335;28;20153;-54
2021/01/22 10:00:54;;;;;;;4.25;1.48;;;5.00;99.90;;;;;;10354987;28;20045;-54
2021/01/22 10:06:15;;;;;;;3.80;1.42;;;5.20;99.90;;;;;;10351064;28;20042;-54
2021/01/22 10:11:40;;;;;;;3.60;1.20;;;5.30;99.90;;;;;;10351274;28;20033;-54
2021/01/22 10:17:02;;;;;;;3.13;1.52;;;5.30;99.90;;;;;;10350171;28;20065;-54
2021/01/22 10:22:23;;;;;;;2.47;0.80;;;5.60;99.90;;;;;;10351560;28;20038;-54
2021/01/22 10:27:45;;;;;;;1.98;0.75;;;5.80;99.90;;;;;;10348776;28;20180;-54
2021/01/22 10:33:06;;;;;;;1.48;0.57;;;5.90;99.90;;;;;;10352051;28;20111;-56
2021/01/22 10:38:27;;;;;;;1.73;0.75;;;6.10;99.90;;;;;;10376824;28;20033;-56
2021/01/22 10:43:48;;;;;;;1.65;1.27;;;6.20;99.90;;;;;;10360873;28;20251;-56
2021/01/22 10:49:09;;;;;;;3.28;1.02;;;6.40;99.90;;;;;;10361767;28;20034;-56
2021/01/22 10:54:30;;;;;;;5.57;1.25;;;6.70;99.90;;;;;;10361044;28;20391;-56
2021/01/22 10:59:51;;;;;;;5.97;1.63;;;7.20;99.90;;;;;;10358345;28;20487;-56
2021/01/22 11:05:13;;;;;;;3.67;1.15;;;7.00;99.90;;;;;;10370159;28;20049;-56
2021/01/22 11:10:34;;;;;;;1.25;0.57;;;7.20;99.90;;;;;;10361503;28;20049;-55
2021/01/22 11:15:55;;;;;;;1.23;0.68;;;7.20;99.90;;;;;;10359162;28;21029;-55
2021/01/22 11:21:16;;;;;;;4.50;0.90;;;7.00;99.90;;;;;;10358420;28;20379;-55
2021/01/22 11:26:37;;;;;;;1.20;0.60;;;7.50;99.90;;;;;;10356233;28;20298;-55
2021/01/22 11:31:58;;;;;;;9.32;0.80;;;8.30;99.90;;;;;;10356493;28;20049;-52
2021/01/22 11:37:19;;;;;;;4.28;0.90;;;8.80;99.90;;;;;;10366776;28;20022;-52
2021/01/22 11:42:40;;;;;;;0.90;0.45;;;9.40;99.90;;;;;;10358447;28;20029;-55
2021/01/22 11:48:01;;;;;;;3.58;0.50;;;9.20;99.90;;;;;;10355787;28;20045;-52
2021/01/22 11:53:22;;;;;;;3.38;0.60;;;9.20;99.90;;;;;;10356400;28;20046;-52
2021/01/22 11:58:43;;;;;;;1.20;0.47;;;9.40;99.90;;;;;;10355942;28;20049;-52
2021/01/22 12:04:04;;;;;;;1.88;0.60;;;9.40;99.90;;;;;;10355263;28;20059;-52
2021/01/22 12:09:25;;;;;;;1.67;0.50;;;9.10;99.90;;;;;;10355152;28;20585;-52
2021/01/22 12:14:46;;;;;;;1.52;0.45;;;9.30;99.90;;;;;;10359670;28;20042;-52
2021/01/22 12:20:07;;;;;;;2.78;0.60;;;9.40;99.90;;;;;;10359546;28;20038;-52
2021/01/22 12:25:29;;;;;;;6.78;2.03;;;9.90;99.90;;;;;;10363005;28;20041;-52
2021/01/22 12:30:50;;;;;;;3.53;1.10;;;10.70;99.90;;;;;;10356951;28;20572;-52
2021/01/22 12:36:11;;;;;;;3.33;1.00;;;10.70;99.90;;;;;;10355232;28;20042;-55
2021/01/22 12:41:34;;;;;;;1.60;0.90;;;11.90;99.90;;;;;;10356166;28;20116;-55
2021/01/22 12:46:55;;;;;;;1.27;0.60;;;12.50;99.90;;;;;;10356714;28;20057;-55
2021/01/22 12:52:16;;;;;;;1.50;0.50;;;11.70;99.90;;;;;;10360717;28;20045;-54
2021/01/22 12:57:37;;;;;;;1.42;0.40;;;11.20;99.90;;;;;;10351746;28;20045;-55
2021/01/22 13:02:58;;;;;;;1.88;0.40;;;11.70;99.90;;;;;;10354258;28;20033;-55
2021/01/22 13:08:19;;;;;;;6.85;1.20;;;11.50;99.90;;;;;;10352628;28;20045;-55
2021/01/22 13:13:40;;;;;;;5.10;0.57;;;11.80;99.90;;;;;;10351003;28;20041;-55
2021/01/22 13:19:01;;;;;;;2.53;0.73;;;12.10;99.90;;;;;;10355632;28;20465;-54
2021/01/22 13:24:22;;;;;;;1.42;0.47;;;12.10;99.90;;;;;;10352581;28;20096;-55
2021/01/22 13:29:43;;;;;;;1.98;0.50;;;11.90;99.90;;;;;;10355053;28;21660;-55
2021/01/22 13:35:05;;;;;;;0.43;0.20;;;11.30;99.90;;;;;;10354397;28;20044;-54
2021/01/22 13:40:26;;;;;;;4.45;0.30;;;11.10;99.90;;;;;;10360328;28;20041;-55
2021/01/22 13:45:47;;;;;;;1.95;0.20;;;11.90;99.90;;;;;;10361284;28;20461;-54
2021/01/22 13:51:08;;;;;;;3.70;0.47;;;11.00;99.90;;;;;;10361312;28;20049;-54
2021/01/22 13:56:29;;;;;;;1.00;0.30;;;10.90;99.90;;;;;;10358723;28;20049;-52
2021/01/22 14:01:51;;;;;;;1.92;0.85;;;10.70;99.90;;;;;;10361448;28;20128;-52
2021/01/22 14:07:12;;;;;;;1.77;0.35;;;10.30;99.90;;;;;;10362163;28;20041;-55
2021/01/22 14:12:33;;;;;;;1.00;0.30;;;10.10;99.90;;;;;;10365124;28;20026;-54
2021/01/22 14:17:54;;;;;;;5.18;0.63;;;9.50;99.90;;;;;;10366069;28;20049;-52
2021/01/22 14:23:15;;;;;;;1.85;0.45;;;9.00;99.90;;;;;;10368719;28;20627;-51
2021/01/22 14:28:36;;;;;;;4.95;0.68;;;8.30;99.90;;;;;;10369477;28;20045;-52
2021/01/22 14:33:57;;;;;;;1.20;0.50;;;7.80;99.90;;;;;;10369323;28;20061;-52
2021/01/22 14:39:19;;;;;;;0.80;0.50;;;7.60;99.90;;;;;;10379537;28;20064;-52
2021/01/22 14:44:40;;;;;;;6.80;1.05;;;7.80;99.90;;;;;;10366980;28;20425;-51
2021/01/22 14:50:04;;;;;;;0.95;0.40;;;7.50;99.90;;;;;;10368448;28;20061;-52
2021/01/22 14:55:26;;;;;;;1.55;0.63;;;7.80;99.90;;;;;;10368580;28;20475;-52
2021/01/22 15:00:47;;;;;;;1.48;0.70;;;7.60;99.90;;;;;;10366102;28;20397;-52
2021/01/22 15:06:09;;;;;;;3.72;1.00;;;7.40;99.90;;;;;;10370731;28;20045;-52
2021/01/22 15:11:30;;;;;;;6.35;0.77;;;7.30;99.90;;;;;;10368295;28;20045;-52
2021/01/22 15:16:51;;;;;;;1.02;0.40;;;7.10;99.90;;;;;;10370024;28;20156;-52
2021/01/22 15:22:12;;;;;;;1.50;0.68;;;6.90;99.90;;;;;;10365002;28;20473;-52
2021/01/22 15:27:33;;;;;;;0.93;0.30;;;6.80;99.90;;;;;;10381638;28;20049;-52
2021/01/22 15:32:54;;;;;;;2.13;0.60;;;6.60;99.90;;;;;;10367552;28;20048;-52
2021/01/22 15:38:15;;;;;;;0.60;0.25;;;6.50;99.90;;;;;;10365239;28;20141;-52
2021/01/22 15:43:38;;;;;;;1.73;0.57;;;6.30;99.90;;;;;;10364993;28;20045;-52
2021/01/22 15:48:59;;;;;;;7.32;0.60;;;6.00;99.90;;;;;;10368530;28;20053;-52
2021/01/22 15:54:20;;;;;;;14.43;2.08;;;6.00;99.90;;;;;;10369842;28;20378;-54
2021/01/22 15:59:41;;;;;;;3.25;0.60;;;6.00;99.90;;;;;;10376830;28;20133;-54
2021/01/22 16:05:04;;;;;;;2.53;0.75;;;5.80;99.90;;;;;;10362148;28;20585;-54
2021/01/22 16:10:26;;;;;;;2.80;1.05;;;5.70;99.90;;;;;;10367094;28;20658;-54
2021/01/22 16:15:49;;;;;;;1.20;0.40;;;5.60;99.90;;;;;;10367718;28;20374;-52
2021/01/22 16:21:10;;;;;;;4.90;1.63;;;5.70;99.90;;;;;;10364406;28;20045;-54
2021/01/22 16:26:31;;;;;;;1.20;0.68;;;5.50;99.90;;;;;;10353562;28;20599;-54
2021/01/22 16:31:52;;;;;;;1.15;0.55;;;5.50;99.90;;;;;;10365344;28;20747;-54
2021/01/22 16:37:13;;;;;;;1.90;1.00;;;5.40;99.90;;;;;;10375503;28;20033;-54
2021/01/22 16:42:34;;;;;;;4.05;0.80;;;5.20;99.90;;;;;;10361057;28;20140;-54
2021/01/22 16:47:56;;;;;;;5.13;1.58;;;5.20;99.90;;;;;;10356454;28;20049;-52
2021/01/22 16:53:17;;;;;;;4.40;1.52;;;5.20;99.90;;;;;;10361842;28;20544;-52
2021/01/22 16:58:38;;;;;;;1.85;0.55;;;5.20;99.90;;;;;;10363239;28;20438;-52
2021/01/22 17:03:59;;;;;;;4.22;0.60;;;5.10;99.90;;;;;;10362608;28;20068;-52
2021/01/22 17:09:20;;;;;;;2.25;1.08;;;5.00;99.90;;;;;;10360240;28;20156;-52
2021/01/22 17:14:41;;;;;;;1.83;1.02;;;4.90;99.90;;;;;;10364395;28;20042;-52
2021/01/22 17:20:03;;;;;;;3.10;1.10;;;4.80;99.90;;;;;;10363612;28;20077;-54
2021/01/22 17:25:26;;;;;;;7.00;2.17;;;4.80;99.90;;;;;;10375089;28;20050;-54
2021/01/22 17:30:47;;;;;;;2.58;0.95;;;4.80;99.90;;;;;;10362907;28;20545;-52
2021/01/22 17:36:08;;;;;;;3.58;0.75;;;4.80;99.90;;;;;;10373305;28;20045;-52
2021/01/22 17:41:29;;;;;;;2.28;0.45;;;4.70;99.90;;;;;;10360437;28;20037;-52
2021/01/22 17:46:50;;;;;;;3.45;0.80;;;4.70;99.90;;;;;;10354873;28;20184;-52
2021/01/22 17:52:11;;;;;;;2.88;1.08;;;4.60;99.90;;;;;;10358403;28;20046;-52
2021/01/22 17:57:32;;;;;;;5.63;1.63;;;4.60;99.90;;;;;;10359840;28;20477;-52
2021/01/22 18:02:53;;;;;;;2.72;0.85;;;4.60;99.90;;;;;;10357009;28;20119;-52
2021/01/22 18:08:15;;;;;;;6.28;1.52;;;4.50;99.90;;;;;;10361027;28;20058;-52
2021/01/22 18:13:36;;;;;;;3.30;0.60;;;4.50;99.90;;;;;;10356685;28;20601;-52
2021/01/22 18:18:57;;;;;;;3.50;1.10;;;4.50;99.90;;;;;;10355196;28;20133;-52
2021/01/22 18:24:18;;;;;;;2.90;1.00;;;4.40;99.90;;;;;;10357311;28;20092;-52
2021/01/22 18:29:39;;;;;;;3.33;1.75;;;4.50;99.90;;;;;;10355284;28;20123;-52
2021/01/22 18:34:59;;;;;;;3.42;1.20;;;4.40;99.90;;;;;;10354415;28;20045;-52
2021/01/22 18:40:23;;;;;;;2.50;1.60;;;4.30;99.90;;;;;;10354044;28;20124;-52
2021/01/22 18:45:44;;;;;;;5.18;2.10;;;4.20;99.90;;;;;;10354663;28;21086;-52
2021/01/22 18:51:05;;;;;;;12.32;1.45;;;4.10;99.90;;;;;;10358238;28;20076;-52
2021/01/22 18:56:27;;;;;;;2.83;1.17;;;4.10;99.90;;;;;;10354737;28;20083;-52
2021/01/22 19:01:48;;;;;;;4.53;1.42;;;4.00;99.90;;;;;;10363702;28;20038;-52
2021/01/22 19:07:10;;;;;;;2.88;0.90;;;4.10;99.90;;;;;;10371133;28;20077;-52
2021/01/22 19:12:36;;;;;;;6.97;2.65;;;4.10;99.90;;;;;;10359653;28;20033;-52
2021/01/22 19:17:57;;;;;;;9.77;1.98;;;4.00;99.90;;;;;;10360790;28;20545;-52
2021/01/22 19:23:17;;;;;;;2.53;0.95;;;4.00;99.90;;;;;;10365616;28;20037;-52
2021/01/22 19:28:39;;;;;;;6.28;2.38;;;3.90;99.90;;;;;;10361450;28;20584;-52
2021/01/22 19:34:00;;;;;;;2.42;1.05;;;3.90;99.90;;;;;;10360773;28;20053;-52
2021/01/22 19:39:21;;;;;;;3.63;1.77;;;3.90;99.90;;;;;;10365754;28;20874;-52
2021/01/22 19:44:42;;;;;;;3.63;1.55;;;3.80;99.90;;;;;;10368161;28;20046;-52
2021/01/22 19:50:05;;;;;;;4.40;1.20;;;3.80;99.90;;;;;;10370482;28;20077;-52
2021/01/22 19:55:25;;;;;;;5.35;2.42;;;3.70;99.90;;;;;;10363454;28;20037;-52
2021/01/22 20:00:46;;;;;;;3.25;1.15;;;3.60;99.90;;;;;;10363268;28;20030;-52
2021/01/22 20:06:07;;;;;;;3.58;2.05;;;3.60;99.90;;;;;;10365165;28;20081;-52
2021/01/22 20:11:28;;;;;;;3.65;1.45;;;3.60;99.90;;;;;;10363241;28;20132;-52
2021/01/22 20:16:49;;;;;;;4.60;2.08;;;3.50;99.90;;;;;;10366261;28;20111;-52
2021/01/22 20:22:10;;;;;;;4.47;2.08;;;3.50;99.90;;;;;;10362112;28;20033;-52
2021/01/22 20:27:31;;;;;;;7.30;1.45;;;3.40;99.90;;;;;;10358667;28;20135;-52
2021/01/22 20:32:52;;;;;;;5.90;1.70;;;3.40;99.90;;;;;;10359328;28;20051;-52
2021/01/22 20:38:13;;;;;;;4.22;1.48;;;3.40;99.90;;;;;;10361024;28;20038;-52
2021/01/22 20:43:37;;;;;;;3.08;1.98;;;3.40;99.90;;;;;;10361519;28;20049;-52
2021/01/22 20:48:58;;;;;;;6.40;1.40;;;3.30;99.90;;;;;;10366297;28;20037;-52
2021/01/22 20:54:19;;;;;;;5.07;2.00;;;3.30;99.90;;;;;;10361440;28;20071;-52
2021/01/22 20:59:40;;;;;;;11.20;1.70;;;3.20;99.90;;;;;;10362012;28;20087;-52
2021/01/22 21:05:02;;;;;;;3.67;1.42;;;3.20;99.90;;;;;;10363415;28;20735;-52
2021/01/22 21:10:24;;;;;;;4.43;1.50;;;3.20;99.90;;;;;;10356694;28;20038;-52
2021/01/22 21:15:45;;;;;;;6.78;2.17;;;3.20;99.90;;;;;;10356287;28;20064;-52
2021/01/22 21:21:06;;;;;;;4.30;1.73;;;3.20;99.90;;;;;;10357734;28;20034;-52
2021/01/22 21:26:27;;;;;;;4.30;1.50;;;3.20;99.90;;;;;;10360090;28;20096;-52
2021/01/22 21:31:48;;;;;;;3.88;1.67;;;3.10;99.90;;;;;;10369857;28;20041;-52
2021/01/22 21:37:09;;;;;;;6.03;1.38;;;3.10;99.90;;;;;;10364166;28;20095;-52
2021/01/22 21:42:30;;;;;;;6.75;1.73;;;3.10;99.90;;;;;;10360411;28;20791;-52
2021/01/22 21:47:51;;;;;;;5.85;2.30;;;3.00;99.90;;;;;;10355869;28;20034;-52
2021/01/22 21:53:12;;;;;;;4.22;1.90;;;2.90;99.90;;;;;;10356933;28;20046;-52
2021/01/22 21:58:33;;;;;;;5.03;2.13;;;3.10;99.90;;;;;;10354674;28;20045;-52
2021/01/22 22:03:54;;;;;;;5.03;2.22;;;3.00;99.90;;;;;;10355002;28;20030;-53
2021/01/22 22:09:15;;;;;;;4.60;1.92;;;3.00;99.90;;;;;;10357422;28;20054;-52
2021/01/22 22:14:36;;;;;;;4.20;1.88;;;3.00;99.90;;;;;;10364133;28;20692;-52
2021/01/22 22:19:57;;;;;;;4.57;2.60;;;3.00;99.90;;;;;;10354381;28;20119;-52
2021/01/22 22:25:18;;;;;;;5.93;4.00;;;2.90;99.90;;;;;;10358872;28;20065;-52
2021/01/22 22:30:39;;;;;;;6.18;1.90;;;2.90;99.90;;;;;;10355320;28;20098;-52
2021/01/22 22:36:00;;;;;;;3.75;2.13;;;2.80;99.90;;;;;;10368915;28;20034;-52
2021/01/22 22:41:21;;;;;;;6.68;2.40;;;2.90;99.90;;;;;;10367732;28;20591;-52
2021/01/22 22:46:42;;;;;;;4.65;1.77;;;2.80;99.90;;;;;;10369048;28;20033;-52
2021/01/22 22:52:03;;;;;;;5.15;1.75;;;2.90;99.90;;;;;;10366623;28;20200;-52
2021/01/22 22:57:24;;;;;;;7.70;2.13;;;2.90;99.90;;;;;;10365420;28;20049;-52
2021/01/22 23:02:45;;;;;;;6.20;2.50;;;2.80;99.90;;;;;;10365685;28;20041;-52
2021/01/22 23:08:06;;;;;;;7.50;2.25;;;2.80;99.90;;;;;;10370115;28;20723;-52
2021/01/22 23:13:27;;;;;;;4.13;2.60;;;2.80;99.90;;;;;;10365217;28;20076;-52
2021/01/22 23:18:48;;;;;;;7.20;2.25;;;2.90;99.90;;;;;;10365133;28;20126;-52
2021/01/22 23:24:09;;;;;;;6.55;2.47;;;2.80;99.90;;;;;;10367224;28;20089;-52
2021/01/22 23:29:30;;;;;;;2.13;1.05;;;2.90;99.90;;;;;;10365704;28;20052;-52
2021/01/22 23:34:51;;;;;;;6.72;2.28;;;2.90;99.90;;;;;;10361568;28;20026;-52
2021/01/22 23:40:12;;;;;;;10.73;2.45;;;2.80;99.90;;;;;;10362186;28;20038;-52
2021/01/22 23:45:33;;;;;;;10.98;2.03;;;2.80;99.90;;;;;;10365964;28;20041;-52
2021/01/22 23:50:54;;;;;;;10.68;2.92;;;2.90;99.90;;;;;;10366275;28;20046;-52
2021/01/22 23:56:15;;;;;;;11.45;2.17;;;2.90;99.90;;;;;;10366285;28;20488;-52
